LKNM weather

Nove Mesto Airport
Nové Město Nad Metují Moravě, Hradec Králové Region, Czechia

Public forecast

Using degrees Celsius for public forecast. Weather courtesy of forecast.io.

METAR (pilot weather report)

Closest report is Pardubice Airport, 25.5 nm (47.3 km) SW. Retrieved 2019/07/20 19:00 UTC (8 minutes ago):

LKPD 201900Z 10004KT CAVOK 27/14 Q1014 NOSIG RMK BLU BLU

TAF (pilot weather forecast)

Closest forecast is Pardubice Airport, 25.5 nm (47.3 km) SW. Retrieved 2019/07/20 18:00 UTC (1 hour ago):

TAF COR LKPD 201700Z 2018/2118 19006KT CAVOK TEMPO 2022/2116 24016G28KT 6000 SHRA SCT035TCU PROB30 TEMPO 2022/2104 27020G35KT 3000 TSRA BKN025CB BECMG 2104/2106 27008KT BKN035 TEMPO 2108/2115 25014G24KT 4000 TSRA BKN020CB BECMG 2115/2118 CAVOK